Time;durP1;ratioP1;P1;durP2;ratioP2;P2;SDS_P1;SDS_P2;PMS_P1;PMS_P2;Temp;Humidity;BMP_temperature;BMP_pressure;BME280_temperature;BME280_humidity;BME280_pressure;Samples;Min_cycle;Max_cycle;Signal;HPM_P1;HPM_P2
2023/11/29 00:02:09;;;;;;;0.70;0.70;;;1.50;99.90;;;;;;5033251;28;20488;-80
2023/11/29 00:04:34;;;;;;;0.70;0.70;;;1.60;99.90;;;;;;5027839;28;20402;-81
2023/11/29 00:07:00;;;;;;;0.60;0.60;;;1.80;99.90;;;;;;5028109;28;20040;-80
2023/11/29 00:09:26;;;;;;;0.57;0.57;;;1.60;99.90;;;;;;5028286;28;20583;-81
2023/11/29 00:11:51;;;;;;;0.50;0.50;;;1.60;99.90;;;;;;5030148;28;20046;-81
2023/11/29 00:14:17;;;;;;;0.70;0.70;;;1.60;99.90;;;;;;5030192;28;20041;-80
2023/11/29 00:16:43;;;;;;;0.60;0.60;;;1.50;99.90;;;;;;5028512;28;20053;-81
2023/11/29 00:19:08;;;;;;;0.70;0.70;;;1.40;99.90;;;;;;5016482;28;20282;-81
2023/11/29 00:21:43;;;;;;;0.50;0.50;;;1.20;99.90;;;;;;5036298;28;20411;-79
2023/11/29 00:24:09;;;;;;;0.60;0.60;;;1.30;99.90;;;;;;5036165;28;20060;-78
2023/11/29 00:26:35;;;;;;;0.60;0.60;;;1.10;99.90;;;;;;5038784;28;20502;-79
2023/11/29 00:29:00;;;;;;;0.70;0.70;;;1.10;99.90;;;;;;5037447;28;20045;-79
2023/11/29 00:31:26;;;;;;;0.60;0.60;;;1.20;99.90;;;;;;5038324;28;20049;-79
2023/11/29 00:33:52;;;;;;;0.60;0.60;;;1.10;99.90;;;;;;5022103;28;20067;-79
2023/11/29 00:36:20;;;;;;;0.57;0.57;;;1.10;99.90;;;;;;5035510;28;20136;-79
2023/11/29 00:38:47;;;;;;;0.68;0.68;;;0.80;99.90;;;;;;5036038;28;20131;-77
2023/11/29 00:41:12;;;;;;;;;;;1.60;99.90;;;;;;5037861;28;20513;-78
2023/11/29 00:43:39;;;;;;;0.70;0.70;;;1.00;99.90;;;;;;5044159;28;19925;-78
2023/11/29 00:46:05;;;;;;;0.70;0.70;;;0.90;99.90;;;;;;5037508;28;20041;-77
2023/11/29 00:48:30;;;;;;;;;;;0.90;99.90;;;;;;5043363;28;20041;-77
2023/11/29 00:50:57;;;;;;;0.60;0.60;;;0.80;99.90;;;;;;5041102;28;20286;-77
2023/11/29 00:53:23;;;;;;;0.60;0.60;;;0.70;99.90;;;;;;5036403;28;20059;-78
2023/11/29 00:55:49;;;;;;;0.70;0.70;;;0.70;99.90;;;;;;5040724;28;20075;-78
2023/11/29 00:58:15;;;;;;;0.60;0.60;;;0.60;99.90;;;;;;5041200;28;20043;-80
2023/11/29 01:00:42;;;;;;;0.60;0.60;;;0.60;99.90;;;;;;5041989;28;20052;-77
2023/11/29 01:03:07;;;;;;;0.70;0.70;;;0.60;99.90;;;;;;5045827;28;20043;-79
2023/11/29 01:05:33;;;;;;;0.70;0.70;;;0.50;99.90;;;;;;5044039;28;20041;-79
2023/11/29 01:07:59;;;;;;;0.70;0.70;;;0.50;99.90;;;;;;5035746;28;20151;-79
2023/11/29 01:10:25;;;;;;;;;;;1.30;99.90;;;;;;5048867;28;20396;-79
2023/11/29 01:12:50;;;;;;;0.70;0.70;;;0.40;99.90;;;;;;5049582;28;20007;-78
2023/11/29 01:15:17;;;;;;;0.70;0.70;;;0.40;99.90;;;;;;5039582;28;20080;-79
2023/11/29 01:17:43;;;;;;;0.75;0.75;;;0.40;99.90;;;;;;5057701;28;20079;-78
2023/11/29 01:20:09;;;;;;;0.70;0.70;;;0.40;99.90;;;;;;5047975;28;20041;-79
2023/11/29 01:22:35;;;;;;;0.60;0.60;;;0.40;99.90;;;;;;5043690;28;20058;-80
2023/11/29 01:25:01;;;;;;;;;;;0.40;99.90;;;;;;5041621;28;20403;-79
2023/11/29 01:27:30;;;;;;;0.60;0.60;;;0.30;99.90;;;;;;5043882;28;20130;-79
2023/11/29 01:29:57;;;;;;;0.70;0.70;;;0.40;99.90;;;;;;5027813;28;20406;-77
2023/11/29 01:32:23;;;;;;;0.70;0.70;;;0.40;99.90;;;;;;5044581;28;20057;-79
2023/11/29 01:34:49;;;;;;;0.88;0.88;;;0.40;99.90;;;;;;5053118;28;20048;-79
2023/11/29 01:37:15;;;;;;;0.63;0.63;;;0.50;99.90;;;;;;5045934;28;20043;-80
2023/11/29 01:39:44;;;;;;;0.65;0.65;;;0.60;99.90;;;;;;5027243;28;20379;-80
2023/11/29 01:42:13;;;;;;;0.60;0.60;;;1.70;99.90;;;;;;5044307;28;20038;-79
2023/11/29 01:44:39;;;;;;;0.68;0.68;;;0.60;99.90;;;;;;5024937;28;20466;-79
2023/11/29 01:47:08;;;;;;;0.63;0.63;;;0.60;99.90;;;;;;5040671;28;20039;-78
2023/11/29 01:49:34;;;;;;;0.70;0.70;;;0.70;99.90;;;;;;5039736;28;20045;-79
2023/11/29 01:51:59;;;;;;;0.70;0.70;;;0.80;99.90;;;;;;5042778;28;20041;-79
2023/11/29 01:54:25;;;;;;;0.70;0.70;;;0.80;99.90;;;;;;5043019;28;20411;-80
2023/11/29 01:56:51;;;;;;;0.60;0.60;;;0.80;99.90;;;;;;5041682;28;20044;-80
2023/11/29 01:59:17;;;;;;;0.60;0.60;;;0.80;99.90;;;;;;5043327;28;20040;-81
2023/11/29 02:01:42;;;;;;;0.70;0.70;;;0.80;99.90;;;;;;5033093;28;20047;-79
2023/11/29 02:04:09;;;;;;;0.70;0.70;;;0.90;99.90;;;;;;5025979;28;20034;-79
2023/11/29 02:06:34;;;;;;;;;;;0.90;99.90;;;;;;5041640;28;20124;-78
2023/11/29 02:09:00;;;;;;;0.63;0.63;;;0.90;99.90;;;;;;5048097;28;20003;-78
2023/11/29 02:11:28;;;;;;;0.70;0.70;;;0.90;99.90;;;;;;5044880;28;20048;-79
2023/11/29 02:13:54;;;;;;;0.60;0.60;;;1.00;99.90;;;;;;5049306;28;20120;-78
2023/11/29 02:16:20;;;;;;;0.60;0.60;;;0.90;99.90;;;;;;5050561;28;20454;-78
2023/11/29 02:18:45;;;;;;;0.63;0.63;;;0.90;99.90;;;;;;5045860;28;20055;-79
2023/11/29 02:21:11;;;;;;;0.70;0.70;;;0.80;99.90;;;;;;5028137;28;20051;-80
2023/11/29 02:24:09;;;;;;;0.70;0.70;;;0.80;99.90;;;;;;5046120;28;20079;-80
2023/11/29 02:26:35;;;;;;;0.60;0.60;;;0.90;99.90;;;;;;5039324;28;20302;-79
2023/11/29 02:29:01;;;;;;;0.68;0.68;;;0.80;99.90;;;;;;5020101;28;20070;-78
2023/11/29 02:31:27;;;;;;;0.80;0.80;;;0.80;99.90;;;;;;5023300;28;20051;-79
2023/11/29 02:33:53;;;;;;;0.70;0.70;;;0.80;99.90;;;;;;5046929;28;20044;-78
2023/11/29 02:36:18;;;;;;;0.57;0.57;;;0.80;99.90;;;;;;5033701;28;20045;-79
2023/11/29 02:38:44;;;;;;;0.70;0.70;;;0.70;99.90;;;;;;5035175;28;20107;-78
2023/11/29 02:41:10;;;;;;;0.70;0.70;;;0.60;99.90;;;;;;5050138;28;20079;-78
2023/11/29 02:43:35;;;;;;;0.73;0.73;;;0.60;99.90;;;;;;5025112;28;20367;-78
2023/11/29 02:46:01;;;;;;;0.68;0.68;;;0.50;99.90;;;;;;5038014;28;20041;-78
2023/11/29 02:48:27;;;;;;;0.70;0.70;;;0.40;99.90;;;;;;5047890;28;20514;-78
2023/11/29 02:50:52;;;;;;;0.70;0.70;;;0.50;99.90;;;;;;5042190;28;20044;-78
2023/11/29 02:53:18;;;;;;;0.60;0.60;;;0.50;99.90;;;;;;5041479;28;20077;-77
2023/11/29 02:55:43;;;;;;;0.70;0.70;;;0.50;99.90;;;;;;5041158;28;20133;-77
2023/11/29 02:58:09;;;;;;;0.68;0.68;;;0.50;99.90;;;;;;5043354;28;20087;-79
2023/11/29 03:00:35;;;;;;;0.60;0.60;;;0.50;99.90;;;;;;5041272;28;20525;-78
2023/11/29 03:03:00;;;;;;;0.70;0.70;;;0.60;99.90;;;;;;5023937;28;20554;-79
2023/11/29 03:05:26;;;;;;;0.70;0.70;;;0.60;99.90;;;;;;5045729;28;20086;-80
2023/11/29 03:07:52;;;;;;;0.70;0.70;;;0.70;99.90;;;;;;5052393;28;20033;-78
2023/11/29 03:10:18;;;;;;;0.60;0.60;;;0.80;99.90;;;;;;5052588;28;20044;-79
2023/11/29 03:12:43;;;;;;;0.70;0.70;;;0.90;99.90;;;;;;5049628;28;20052;-80
2023/11/29 03:15:11;;;;;;;0.70;0.70;;;1.00;99.90;;;;;;5046384;28;20045;-80
2023/11/29 03:17:37;;;;;;;3.03;1.88;;;0.90;99.90;;;;;;5036830;28;20049;-79
2023/11/29 03:20:03;;;;;;;0.98;0.98;;;0.90;99.90;;;;;;5042130;28;20106;-79
2023/11/29 03:22:29;;;;;;;;;;;0.90;99.90;;;;;;5041100;28;20068;-80
2023/11/29 03:24:55;;;;;;;0.60;0.60;;;0.90;99.90;;;;;;5041110;28;19921;-79
2023/11/29 03:27:20;;;;;;;0.60;0.60;;;0.90;99.90;;;;;;5042052;28;20041;-80
2023/11/29 03:29:46;;;;;;;0.63;0.63;;;1.00;99.90;;;;;;5041293;28;20041;-79
2023/11/29 03:32:12;;;;;;;0.60;0.60;;;1.20;99.90;;;;;;5045172;28;20049;-80
2023/11/29 03:34:37;;;;;;;0.70;0.70;;;1.20;99.90;;;;;;5045707;28;20433;-79
2023/11/29 03:37:03;;;;;;;0.70;0.70;;;1.00;99.90;;;;;;5046356;28;20120;-80
2023/11/29 03:39:29;;;;;;;0.68;0.68;;;1.10;99.90;;;;;;5029135;28;20133;-78
2023/11/29 03:41:54;;;;;;;0.70;0.70;;;1.10;99.90;;;;;;5028662;28;20032;-79
2023/11/29 03:44:20;;;;;;;0.60;0.60;;;1.10;99.90;;;;;;5046528;28;20040;-79
2023/11/29 03:46:46;;;;;;;0.70;0.70;;;1.10;99.90;;;;;;5041381;28;20052;-79
2023/11/29 03:49:12;;;;;;;0.60;0.60;;;1.00;99.90;;;;;;5020936;28;20470;-79
2023/11/29 03:51:37;;;;;;;0.60;0.60;;;1.00;99.90;;;;;;5043119;28;20079;-80
2023/11/29 03:54:03;;;;;;;0.63;0.63;;;0.90;99.90;;;;;;5044953;28;20033;-78
2023/11/29 03:56:29;;;;;;;0.57;0.57;;;0.90;99.90;;;;;;5049631;28;20053;-79
2023/11/29 03:58:54;;;;;;;0.70;0.70;;;0.80;99.90;;;;;;5044120;28;20411;-79
2023/11/29 04:01:20;;;;;;;0.60;0.60;;;0.70;99.90;;;;;;5025142;28;20107;-78
2023/11/29 04:03:45;;;;;;;0.70;0.70;;;0.70;99.90;;;;;;5040830;28;20041;-77
2023/11/29 04:06:23;;;;;;;0.60;0.60;;;0.60;99.90;;;;;;5046790;28;20082;-78
2023/11/29 04:08:49;;;;;;;0.70;0.70;;;0.40;99.90;;;;;;5055138;28;20086;-77
2023/11/29 04:11:14;;;;;;;0.52;0.52;;;0.50;99.90;;;;;;5038191;28;20041;-76
2023/11/29 04:13:40;;;;;;;0.60;0.60;;;0.50;99.90;;;;;;5053771;28;20048;-76
2023/11/29 04:16:07;;;;;;;0.70;0.70;;;0.50;99.90;;;;;;5040125;28;20452;-78
2023/11/29 04:18:33;;;;;;;0.70;0.70;;;0.50;99.90;;;;;;5044284;28;20457;-78
2023/11/29 04:21:00;;;;;;;0.70;0.70;;;1.40;99.90;;;;;;5041175;28;20120;-77
2023/11/29 04:23:26;;;;;;;0.60;0.60;;;0.60;99.90;;;;;;5049057;28;20052;-77
2023/11/29 04:25:52;;;;;;;0.50;0.50;;;0.70;99.90;;;;;;5045717;28;20091;-76
2023/11/29 04:28:18;;;;;;;;;;;0.70;99.90;;;;;;5041911;28;20037;-76
2023/11/29 04:30:43;;;;;;;0.70;0.70;;;0.80;99.90;;;;;;5042126;28;19940;-78
2023/11/29 04:33:09;;;;;;;0.70;0.70;;;0.80;99.90;;;;;;5044404;28;20045;-78
2023/11/29 04:35:36;;;;;;;0.70;0.70;;;0.80;99.90;;;;;;5046592;28;20037;-78
2023/11/29 04:38:02;;;;;;;0.60;0.60;;;0.80;99.90;;;;;;5039342;28;20037;-77
2023/11/29 04:40:28;;;;;;;0.50;0.50;;;0.90;99.90;;;;;;5023512;28;20047;-76
2023/11/29 04:42:53;;;;;;;0.47;0.47;;;0.90;99.90;;;;;;5045893;28;20457;-77
2023/11/29 04:45:19;;;;;;;1.40;1.35;;;0.90;99.90;;;;;;5047060;28;20056;-77
2023/11/29 04:47:44;;;;;;;0.70;0.70;;;1.00;99.90;;;;;;5024434;28;20045;-79
2023/11/29 04:50:11;;;;;;;0.60;0.60;;;1.00;99.90;;;;;;5027315;28;20060;-79
2023/11/29 04:52:37;;;;;;;0.60;0.60;;;1.00;99.90;;;;;;5045980;28;20045;-78
2023/11/29 04:55:03;;;;;;;0.77;0.77;;;1.00;99.90;;;;;;5028762;28;20144;-78
2023/11/29 04:57:28;;;;;;;;;;;1.00;99.90;;;;;;5026182;28;20048;-80
2023/11/29 04:59:54;;;;;;;0.63;0.63;;;1.00;99.90;;;;;;5047906;28;19924;-79
2023/11/29 05:02:20;;;;;;;0.70;0.70;;;1.00;99.90;;;;;;5017175;28;20033;-79
2023/11/29 05:04:45;;;;;;;0.70;0.70;;;0.90;99.90;;;;;;5042608;28;20508;-80
2023/11/29 05:07:11;;;;;;;0.60;0.60;;;1.20;99.90;;;;;;5055770;28;20475;-80
2023/11/29 05:09:36;;;;;;;0.80;0.80;;;0.90;99.90;;;;;;5046573;28;20045;-79
2023/11/29 05:12:02;;;;;;;0.55;0.55;;;0.90;99.90;;;;;;5040975;28;20067;-79
2023/11/29 05:14:28;;;;;;;0.68;0.68;;;0.90;99.90;;;;;;5024302;28;20045;-78
2023/11/29 05:16:54;;;;;;;0.60;0.60;;;0.90;99.90;;;;;;5041358;28;20068;-78
2023/11/29 05:19:19;;;;;;;0.60;0.60;;;0.90;99.90;;;;;;5038792;28;20098;-77
2023/11/29 05:21:45;;;;;;;0.70;0.70;;;0.90;99.90;;;;;;5023495;28;20484;-78
2023/11/29 05:24:11;;;;;;;0.60;0.60;;;0.90;99.90;;;;;;5040505;28;20222;-78
2023/11/29 05:26:36;;;;;;;0.60;0.60;;;0.90;99.90;;;;;;5046774;28;20045;-78
2023/11/29 05:29:02;;;;;;;0.60;0.60;;;0.90;99.90;;;;;;5040313;28;20041;-78
2023/11/29 05:31:29;;;;;;;0.70;0.70;;;0.90;99.90;;;;;;5045221;28;20616;-78
2023/11/29 05:33:55;;;;;;;0.50;0.50;;;0.90;99.90;;;;;;5046121;28;20091;-78
2023/11/29 05:36:21;;;;;;;0.60;0.60;;;0.90;99.90;;;;;;5050819;28;20414;-80
2023/11/29 05:38:47;;;;;;;0.70;0.70;;;0.90;99.90;;;;;;5024273;28;20049;-79
2023/11/29 05:41:13;;;;;;;0.70;0.70;;;0.90;99.90;;;;;;5037572;28;20052;-79
2023/11/29 05:43:40;;;;;;;0.60;0.60;;;0.90;99.90;;;;;;5043419;28;20462;-78
2023/11/29 05:46:06;;;;;;;0.60;0.60;;;0.90;99.90;;;;;;5031841;28;20045;-79
2023/11/29 05:48:32;;;;;;;0.70;0.70;;;1.00;99.90;;;;;;5035543;28;20122;-79
2023/11/29 05:50:58;;;;;;;0.65;0.65;;;1.00;99.90;;;;;;5036963;28;20089;-78
2023/11/29 05:53:23;;;;;;;0.68;0.68;;;1.00;99.90;;;;;;5041087;28;20347;-78
2023/11/29 05:55:49;;;;;;;0.70;0.70;;;1.00;99.90;;;;;;5047557;28;20201;-79
2023/11/29 05:58:14;;;;;;;0.70;0.70;;;1.00;99.90;;;;;;5042706;28;20057;-79
2023/11/29 06:00:40;;;;;;;0.63;0.63;;;1.10;99.90;;;;;;5042582;28;20048;-78
2023/11/29 06:03:06;;;;;;;0.60;0.60;;;1.20;99.90;;;;;;5042477;28;20043;-78
2023/11/29 06:05:32;;;;;;;0.60;0.60;;;1.20;99.90;;;;;;5043390;28;20041;-77
2023/11/29 06:07:58;;;;;;;0.60;0.60;;;1.30;99.90;;;;;;5041449;28;20048;-78
2023/11/29 06:10:23;;;;;;;0.70;0.70;;;1.40;99.90;;;;;;5045633;28;20045;-79
2023/11/29 06:12:49;;;;;;;0.77;0.77;;;1.30;99.90;;;;;;5041670;28;20128;-78
2023/11/29 06:15:15;;;;;;;0.60;0.60;;;1.50;99.90;;;;;;5026828;28;20073;-77
2023/11/29 06:17:40;;;;;;;0.68;0.68;;;1.50;99.90;;;;;;5039418;28;20069;-79
2023/11/29 06:20:11;;;;;;;0.60;0.60;;;1.50;99.90;;;;;;5044207;28;20056;-78
2023/11/29 06:22:37;;;;;;;0.75;0.75;;;1.50;99.90;;;;;;5024796;28;20045;-78
2023/11/29 06:25:04;;;;;;;0.60;0.60;;;1.60;99.90;;;;;;5038939;28;20044;-78
2023/11/29 06:27:30;;;;;;;0.63;0.63;;;1.60;99.90;;;;;;5039405;28;20106;-78
2023/11/29 06:29:57;;;;;;;0.60;0.60;;;1.90;99.90;;;;;;5043905;28;20482;-78
2023/11/29 06:32:22;;;;;;;0.60;0.60;;;1.60;99.90;;;;;;5040328;28;20450;-78
2023/11/29 06:34:51;;;;;;;0.70;0.70;;;1.60;99.90;;;;;;5037258;28;20052;-77
2023/11/29 06:37:16;;;;;;;0.70;0.70;;;1.60;99.90;;;;;;5036300;28;20049;-78
2023/11/29 06:39:46;;;;;;;0.60;0.60;;;1.60;99.90;;;;;;5036717;28;20091;-78
2023/11/29 06:42:13;;;;;;;0.70;0.70;;;1.40;99.90;;;;;;5011415;28;20098;-77
2023/11/29 06:44:39;;;;;;;0.60;0.60;;;1.60;99.90;;;;;;5033705;28;20034;-78
2023/11/29 06:47:04;;;;;;;0.57;0.57;;;1.60;99.90;;;;;;5039709;28;20060;-78
2023/11/29 06:49:30;;;;;;;0.70;0.70;;;1.70;99.90;;;;;;5038259;28;20529;-77
2023/11/29 06:51:56;;;;;;;0.77;0.77;;;1.60;99.90;;;;;;5011784;28;20490;-79
2023/11/29 06:54:23;;;;;;;0.60;0.60;;;1.50;99.90;;;;;;5033807;28;20410;-78
2023/11/29 06:56:49;;;;;;;0.70;0.70;;;1.60;99.90;;;;;;5038824;28;20045;-77
2023/11/29 06:59:15;;;;;;;0.70;0.70;;;1.50;99.90;;;;;;5015790;28;20056;-78
2023/11/29 07:01:41;;;;;;;0.60;0.60;;;1.50;99.90;;;;;;5018151;28;20041;-79
2023/11/29 07:04:08;;;;;;;1.10;1.10;;;1.20;99.90;;;;;;5045024;28;20045;-80
2023/11/29 07:06:34;;;;;;;0.70;0.70;;;1.50;99.90;;;;;;5035745;28;20452;-78
2023/11/29 07:09:00;;;;;;;0.63;0.63;;;1.50;99.90;;;;;;5032936;28;20049;-80
2023/11/29 07:11:25;;;;;;;0.60;0.60;;;1.40;99.90;;;;;;5034016;28;20128;-82
2023/11/29 07:13:51;;;;;;;0.70;0.70;;;2.30;99.90;;;;;;5031447;28;20052;-80
2023/11/29 07:16:17;;;;;;;0.60;0.60;;;1.00;99.90;;;;;;5023223;28;20072;-78
2023/11/29 07:18:43;;;;;;;;;;;1.30;99.90;;;;;;5040143;28;20109;-77
2023/11/29 07:21:08;;;;;;;0.60;0.60;;;1.30;99.90;;;;;;5037193;28;20434;-77
2023/11/29 07:23:34;;;;;;;1.40;1.30;;;1.30;99.90;;;;;;5032173;28;20434;-77
2023/11/29 07:26:01;;;;;;;0.77;0.77;;;1.30;99.90;;;;;;5034588;28;20057;-80
2023/11/29 07:28:27;;;;;;;0.70;0.70;;;1.20;99.90;;;;;;5033244;28;20037;-79
2023/11/29 07:30:53;;;;;;;0.75;0.63;;;1.20;99.90;;;;;;5027171;28;20041;-79
2023/11/29 07:33:18;;;;;;;0.80;0.80;;;1.70;99.90;;;;;;5033206;28;20041;-79
2023/11/29 07:35:44;;;;;;;0.80;0.80;;;1.40;99.90;;;;;;5032182;28;20414;-80
2023/11/29 07:38:11;;;;;;;0.73;0.73;;;1.30;99.90;;;;;;5027461;28;20041;-81
2023/11/29 07:40:37;;;;;;;0.68;0.68;;;1.30;99.90;;;;;;5003354;28;20077;-83
2023/11/29 07:43:11;;;;;;;0.93;0.93;;;1.20;99.90;;;;;;5040429;28;20040;-79
2023/11/29 07:45:37;;;;;;;0.70;0.70;;;1.40;99.90;;;;;;5038686;28;20045;-81
2023/11/29 07:48:03;;;;;;;0.70;0.70;;;1.20;99.90;;;;;;5024342;28;20086;-80
2023/11/29 07:50:32;;;;;;;0.50;0.50;;;1.40;99.90;;;;;;5037038;28;20562;-81
2023/11/29 07:52:57;;;;;;;0.60;0.60;;;1.30;99.90;;;;;;5018972;28;20084;-82
2023/11/29 07:55:23;;;;;;;0.70;0.70;;;1.30;99.90;;;;;;4990708;28;20395;-81
2023/11/29 07:57:50;;;;;;;0.70;0.70;;;1.40;99.90;;;;;;5036923;28;20334;-81
2023/11/29 08:00:17;;;;;;;0.57;0.57;;;1.40;99.90;;;;;;5037087;28;20045;-80
2023/11/29 08:02:43;;;;;;;1.05;0.90;;;1.40;99.90;;;;;;5008795;28;20406;-81
2023/11/29 08:05:09;;;;;;;0.63;0.63;;;1.50;99.90;;;;;;5018680;28;20203;-81
2023/11/29 08:07:35;;;;;;;0.70;0.70;;;0.50;99.90;;;;;;5034144;28;20472;-81
2023/11/29 08:10:03;;;;;;;0.60;0.60;;;1.30;99.90;;;;;;5033533;28;20042;-80
2023/11/29 08:12:31;;;;;;;0.70;0.70;;;1.30;99.90;;;;;;5036665;28;20053;-81
2023/11/29 08:14:58;;;;;;;1.00;1.00;;;1.10;99.90;;;;;;5036091;28;20041;-82
2023/11/29 08:17:24;;;;;;;0.77;0.77;;;0.80;99.90;;;;;;4992066;28;20099;-81
2023/11/29 08:19:50;;;;;;;0.70;0.70;;;0.90;99.90;;;;;;5015587;28;20402;-80
2023/11/29 08:22:15;;;;;;;0.70;0.70;;;1.00;99.90;;;;;;5025738;28;20513;-82
2023/11/29 08:24:41;;;;;;;0.65;0.65;;;2.10;99.90;;;;;;5029848;28;20088;-81
2023/11/29 08:27:09;;;;;;;0.73;0.73;;;1.00;99.90;;;;;;5028486;28;20037;-81
2023/11/29 08:29:34;;;;;;;0.65;0.65;;;1.10;99.90;;;;;;5018979;28;20064;-82
2023/11/29 08:32:00;;;;;;;0.70;0.70;;;1.10;99.90;;;;;;5029918;28;20075;-81
2023/11/29 08:34:25;;;;;;;0.60;0.60;;;1.10;99.90;;;;;;5033225;28;20067;-83
2023/11/29 08:36:51;;;;;;;0.70;0.70;;;1.10;99.90;;;;;;5039181;28;20498;-80
2023/11/29 08:39:17;;;;;;;0.70;0.70;;;1.20;99.90;;;;;;5036317;28;20045;-81
2023/11/29 08:41:43;;;;;;;0.70;0.70;;;1.10;99.90;;;;;;5035439;28;20120;-82
2023/11/29 08:44:12;;;;;;;0.65;0.65;;;1.20;99.90;;;;;;5038016;28;20045;-79
2023/11/29 08:46:37;;;;;;;1.35;1.25;;;1.30;99.90;;;;;;5019905;28;20044;-80
2023/11/29 08:49:03;;;;;;;0.70;0.70;;;1.30;99.90;;;;;;5040426;28;20045;-81
2023/11/29 08:51:29;;;;;;;0.57;0.57;;;1.30;99.90;;;;;;5037042;28;20037;-83
2023/11/29 08:53:55;;;;;;;0.70;0.70;;;1.30;99.90;;;;;;5024233;28;20048;-81
2023/11/29 08:56:21;;;;;;;0.60;0.60;;;1.40;99.90;;;;;;5038360;28;20091;-81
2023/11/29 08:58:47;;;;;;;0.70;0.70;;;1.60;99.90;;;;;;5021957;28;20076;-81
2023/11/29 09:01:22;;;;;;;0.70;0.70;;;1.70;99.90;;;;;;5036768;28;20042;-80
2023/11/29 09:03:48;;;;;;;0.60;0.60;;;2.50;99.90;;;;;;5036334;28;20041;-82
2023/11/29 09:06:15;;;;;;;;;;;1.80;99.90;;;;;;5038158;28;20033;-81
2023/11/29 09:08:42;;;;;;;0.70;0.70;;;1.70;99.90;;;;;;5040469;28;19970;-83
2023/11/29 09:11:14;;;;;;;0.82;0.82;;;1.90;99.90;;;;;;5022245;28;20095;-82
2023/11/29 09:13:40;;;;;;;;;;;2.20;99.90;;;;;;5019652;28;20053;-82
2023/11/29 09:16:06;;;;;;;0.60;0.60;;;2.10;99.90;;;;;;5034913;28;20426;-83
2023/11/29 09:18:32;;;;;;;0.68;0.68;;;2.10;99.90;;;;;;5023112;28;20131;-82
2023/11/29 09:21:01;;;;;;;0.55;0.55;;;2.00;99.90;;;;;;5001081;28;20128;-81
2023/11/29 09:23:26;;;;;;;0.60;0.60;;;2.00;99.90;;;;;;5027760;28;20491;-83
2023/11/29 09:25:53;;;;;;;2.38;1.58;;;1.90;99.90;;;;;;5028177;28;20056;-82
2023/11/29 09:28:19;;;;;;;0.60;0.60;;;1.90;99.90;;;;;;5024631;28;20114;-82
2023/11/29 09:30:45;;;;;;;0.70;0.70;;;1.90;99.90;;;;;;5039341;28;20140;-81
2023/11/29 09:33:16;;;;;;;0.70;0.70;;;1.80;99.90;;;;;;5035599;28;20052;-81
2023/11/29 09:35:42;;;;;;;0.60;0.60;;;1.70;99.90;;;;;;5040500;28;20106;-79
2023/11/29 09:38:09;;;;;;;0.57;0.57;;;1.80;99.90;;;;;;5041118;28;20064;-78
2023/11/29 09:40:34;;;;;;;;;;;1.90;99.90;;;;;;5014869;28;20041;-77
2023/11/29 09:43:00;;;;;;;0.60;0.60;;;2.20;99.90;;;;;;5022571;28;19927;-77
2023/11/29 09:45:26;;;;;;;0.60;0.60;;;1.70;99.90;;;;;;5027558;28;20038;-80
2023/11/29 09:47:56;;;;;;;0.60;0.60;;;2.50;99.90;;;;;;5034762;28;20092;-78
2023/11/29 09:50:24;;;;;;;0.70;0.70;;;2.20;99.90;;;;;;5031013;28;20044;-79
2023/11/29 09:52:50;;;;;;;0.60;0.60;;;2.40;99.90;;;;;;5033022;28;20049;-79
2023/11/29 09:55:22;;;;;;;0.70;0.70;;;;;;;;;;5032016;28;20049;-79
2023/11/29 09:57:48;;;;;;;0.60;0.60;;;2.30;99.90;;;;;;5022607;28;20251;-79
2023/11/29 10:00:15;;;;;;;0.60;0.60;;;2.30;99.90;;;;;;5037607;28;20094;-78
2023/11/29 10:02:42;;;;;;;0.60;0.60;;;2.40;99.90;;;;;;5032131;28;20045;-77
2023/11/29 10:05:08;;;;;;;0.60;0.60;;;4.10;99.90;;;;;;5039735;28;20094;-78
2023/11/29 10:07:34;;;;;;;0.60;0.60;;;2.40;99.90;;;;;;5032394;28;20042;-78
2023/11/29 10:10:00;;;;;;;;;;;2.40;99.90;;;;;;5042011;28;20080;-77
2023/11/29 10:12:26;;;;;;;0.50;0.50;;;2.70;99.90;;;;;;5024533;28;19921;-77
2023/11/29 10:14:54;;;;;;;0.50;0.50;;;2.50;99.90;;;;;;5035527;28;20052;-79
2023/11/29 10:17:20;;;;;;;0.50;0.50;;;2.60;99.90;;;;;;5018670;28;20049;-79
2023/11/29 10:19:46;;;;;;;0.60;0.60;;;2.70;99.90;;;;;;5036297;28;20434;-78
2023/11/29 10:22:15;;;;;;;;;;;2.60;99.90;;;;;;5021272;28;20395;-78
2023/11/29 10:24:41;;;;;;;0.60;0.60;;;2.60;99.90;;;;;;5024272;28;19974;-80
2023/11/29 10:27:08;;;;;;;0.63;0.63;;;2.70;99.90;;;;;;5021843;28;20552;-79
2023/11/29 10:29:34;;;;;;;0.60;0.60;;;2.70;99.90;;;;;;5033562;28;20045;-77
2023/11/29 10:32:08;;;;;;;0.60;0.60;;;3.00;99.90;;;;;;5015890;28;20382;-80
2023/11/29 10:34:35;;;;;;;0.65;0.65;;;2.60;99.90;;;;;;5022130;28;20162;-78
2023/11/29 10:37:05;;;;;;;0.55;0.55;;;2.80;99.90;;;;;;5013756;28;20125;-78
2023/11/29 10:39:37;;;;;;;0.55;0.55;;;3.20;99.90;;;;;;5030537;28;20052;-79
2023/11/29 10:42:08;;;;;;;0.70;0.70;;;2.80;99.90;;;;;;5031525;28;20043;-80
2023/11/29 10:44:38;;;;;;;0.82;0.82;;;;;;;;;;5033474;28;20094;-80
2023/11/29 10:47:20;;;;;;;0.50;0.50;;;3.10;99.90;;;;;;5031496;28;20348;-80
2023/11/29 10:49:49;;;;;;;0.47;0.47;;;3.40;99.90;;;;;;5034372;28;20070;-79
2023/11/29 10:52:18;;;;;;;0.60;0.60;;;3.10;99.90;;;;;;5004300;28;20044;-80
2023/11/29 10:54:50;;;;;;;0.93;0.68;;;3.20;99.90;;;;;;5019034;28;20049;-80
2023/11/29 10:57:28;;;;;;;0.60;0.60;;;3.40;99.90;;;;;;5038532;28;20064;-78
2023/11/29 11:00:13;;;;;;;0.68;0.68;;;3.50;99.90;;;;;;5044022;28;20387;-79
2023/11/29 11:02:50;;;;;;;0.60;0.60;;;3.60;99.90;;;;;;5042510;28;20037;-80
2023/11/29 11:05:17;;;;;;;0.50;0.50;;;3.70;99.90;;;;;;5045746;28;20044;-79
2023/11/29 11:07:47;;;;;;;0.50;0.50;;;3.50;99.90;;;;;;5023246;28;20057;-80
2023/11/29 11:10:24;;;;;;;0.70;0.70;;;4.20;99.90;;;;;;5021825;28;20051;-81
2023/11/29 11:12:51;;;;;;;0.50;0.50;;;4.00;99.90;;;;;;5051868;28;20053;-78
2023/11/29 11:15:20;;;;;;;0.50;0.50;;;3.70;99.90;;;;;;5005825;28;20107;-78
2023/11/29 11:18:04;;;;;;;0.60;0.60;;;4.10;99.90;;;;;;5026540;28;20041;-78
2023/11/29 11:20:48;;;;;;;0.45;0.45;;;4.50;99.90;;;;;;5042146;28;20095;-79
2023/11/29 11:23:19;;;;;;;0.55;0.55;;;3.80;99.90;;;;;;5033121;28;20049;-78
2023/11/29 11:25:45;;;;;;;0.60;0.60;;;4.30;99.90;;;;;;5016374;28;20033;-80
2023/11/29 11:28:31;;;;;;;0.60;0.60;;;4.40;99.90;;;;;;5035826;28;20364;-79
2023/11/29 11:31:01;;;;;;;0.43;0.43;;;4.20;99.90;;;;;;5043428;28;20049;-79
2023/11/29 11:33:53;;;;;;;0.70;0.70;;;4.20;99.90;;;;;;5033910;28;20501;-79
2023/11/29 11:36:22;;;;;;;0.70;0.70;;;3.70;99.90;;;;;;5038759;28;20048;-80
2023/11/29 11:38:49;;;;;;;0.60;0.60;;;3.90;99.90;;;;;;5020974;28;20510;-79
2023/11/29 11:41:15;;;;;;;0.63;0.63;;;3.90;99.90;;;;;;5040910;28;20398;-79
2023/11/29 11:43:41;;;;;;;0.50;0.50;;;3.90;99.90;;;;;;5041998;28;20056;-80
2023/11/29 11:46:07;;;;;;;0.60;0.60;;;4.00;99.90;;;;;;5019350;28;20033;-80
2023/11/29 11:48:32;;;;;;;0.50;0.50;;;3.70;99.90;;;;;;5035245;28;20126;-79
2023/11/29 11:51:01;;;;;;;0.85;0.85;;;3.80;99.90;;;;;;5039898;28;20041;-82
2023/11/29 11:53:27;;;;;;;0.43;0.43;;;3.80;99.90;;;;;;5012740;28;20037;-80
2023/11/29 11:55:52;;;;;;;0.60;0.60;;;3.10;99.90;;;;;;5037817;28;20497;-79
2023/11/29 11:58:21;;;;;;;0.47;0.47;;;3.50;99.90;;;;;;5038206;28;20037;-78
2023/11/29 12:00:47;;;;;;;0.60;0.60;;;4.10;99.90;;;;;;5013812;28;20525;-80
2023/11/29 12:03:14;;;;;;;;;;;3.20;99.90;;;;;;5039127;28;20048;-79
2023/11/29 12:05:41;;;;;;;0.70;0.70;;;3.30;99.90;;;;;;5026446;28;20062;-80
2023/11/29 12:08:08;;;;;;;0.60;0.60;;;3.90;99.90;;;;;;5022988;28;20068;-79
2023/11/29 12:10:34;;;;;;;0.60;0.60;;;3.40;99.90;;;;;;5033132;28;20041;-80
2023/11/29 12:13:01;;;;;;;;;;;3.30;99.90;;;;;;5034225;28;20744;-79
2023/11/29 12:15:31;;;;;;;0.50;0.50;;;3.90;99.90;;;;;;5028792;28;19925;-79
2023/11/29 12:17:58;;;;;;;0.50;0.50;;;4.00;99.90;;;;;;5030786;28;20036;-77
2023/11/29 12:20:30;;;;;;;0.50;0.50;;;3.60;99.90;;;;;;5024927;28;20128;-81
2023/11/29 12:22:56;;;;;;;0.50;0.50;;;3.50;99.90;;;;;;5031758;28;20762;-79
2023/11/29 12:25:22;;;;;;;;;;;3.30;99.90;;;;;;5033160;28;20041;-78
2023/11/29 12:27:51;;;;;;;0.60;0.60;;;3.50;99.90;;;;;;5017434;28;19920;-82
2023/11/29 12:30:17;;;;;;;0.60;0.60;;;3.90;99.90;;;;;;5033176;28;20041;-81
2023/11/29 12:32:43;;;;;;;;;;;3.70;99.90;;;;;;5038300;28;20506;-80
2023/11/29 12:35:10;;;;;;;0.60;0.60;;;4.00;99.90;;;;;;5015832;28;19924;-80
2023/11/29 12:37:42;;;;;;;0.70;0.70;;;4.30;99.90;;;;;;5021304;28;20046;-79
2023/11/29 12:40:09;;;;;;;0.63;0.63;;;4.00;99.90;;;;;;5031654;28;20049;-78
2023/11/29 12:42:35;;;;;;;0.70;0.70;;;3.70;99.90;;;;;;5019489;28;20739;-80
2023/11/29 12:45:01;;;;;;;0.52;0.52;;;3.60;99.90;;;;;;5016306;28;20080;-77
2023/11/29 12:47:31;;;;;;;0.50;0.50;;;3.90;99.90;;;;;;5036872;28;20079;-80
2023/11/29 12:49:57;;;;;;;0.50;0.50;;;4.60;99.90;;;;;;5019405;28;20041;-78
2023/11/29 12:52:24;;;;;;;0.63;0.63;;;3.90;99.90;;;;;;5018685;28;20549;-81
2023/11/29 12:54:49;;;;;;;0.57;0.57;;;4.00;99.90;;;;;;5033938;28;20471;-79
2023/11/29 12:57:16;;;;;;;0.50;0.50;;;4.10;99.90;;;;;;4991566;28;20045;-80
2023/11/29 12:59:42;;;;;;;0.70;0.70;;;3.90;99.90;;;;;;5016948;28;20057;-77
2023/11/29 13:02:09;;;;;;;;;;;4.30;99.90;;;;;;5034907;28;20098;-78